sensor_id;sensor_type;location;lat;lon;timestamp;pressure;altitude;pressure_sealevel;temperature;humidity
62508;BME280;48556;51.972;4.624;2023-04-19T00:01:58;77908.91;;;-146.23;48.50
62508;BME280;48556;51.972;4.624;2023-04-19T00:04:24;77914.94;;;-146.23;48.83
62508;BME280;48556;51.972;4.624;2023-04-19T00:06:49;77908.91;;;-146.23;48.88
62508;BME280;48556;51.972;4.624;2023-04-19T00:09:16;77927.00;;;-146.23;49.27
62508;BME280;48556;51.972;4.624;2023-04-19T00:11:41;77951.09;;;-146.23;49.63
62508;BME280;48556;51.972;4.624;2023-04-19T00:14:07;77929.00;;;-146.23;49.29
62508;BME280;48556;51.972;4.624;2023-04-19T00:16:32;77931.00;;;-146.23;49.68
62508;BME280;48556;51.972;4.624;2023-04-19T00:18:58;77922.97;;;-146.23;49.12
62508;BME280;48556;51.972;4.624;2023-04-19T00:21:23;77947.09;;;-146.23;49.80
62508;BME280;48556;51.972;4.624;2023-04-19T00:23:49;77931.00;;;-146.23;49.50
62508;BME280;48556;51.972;4.624;2023-04-19T00:26:14;77920.97;;;-146.23;49.42
62508;BME280;48556;51.972;4.624;2023-04-19T00:28:41;77900.88;;;-146.23;49.14
62508;BME280;48556;51.972;4.624;2023-04-19T00:31:07;77929.00;;;-146.23;49.50
62508;BME280;48556;51.972;4.624;2023-04-19T00:33:32;77967.19;;;-146.23;50.37
62508;BME280;48556;51.972;4.624;2023-04-19T00:35:59;77965.16;;;-146.23;50.34
62508;BME280;48556;51.972;4.624;2023-04-19T00:38:30;77963.16;;;-146.23;50.45
62508;BME280;48556;51.972;4.624;2023-04-19T00:40:58;77981.25;;;-146.23;51.03
62508;BME280;48556;51.972;4.624;2023-04-19T00:43:23;77971.19;;;-146.23;51.16
62508;BME280;48556;51.972;4.624;2023-04-19T00:45:49;78015.41;;;-146.23;52.11
62508;BME280;48556;51.972;4.624;2023-04-19T00:48:14;77965.16;;;-146.23;51.59
62508;BME280;48556;51.972;4.624;2023-04-19T00:50:46;77967.19;;;-146.23;51.90
62508;BME280;48556;51.972;4.624;2023-04-19T00:53:12;77955.13;;;-146.23;51.47
62508;BME280;48556;51.972;4.624;2023-04-19T00:55:38;77933.03;;;-146.23;51.48
62508;BME280;48556;51.972;4.624;2023-04-19T00:58:06;77922.97;;;-146.23;51.72
62508;BME280;48556;51.972;4.624;2023-04-19T01:00:32;77951.09;;;-146.23;52.13
62508;BME280;48556;51.972;4.624;2023-04-19T01:03:02;77924.97;;;-146.23;51.91
62508;BME280;48556;51.972;4.624;2023-04-19T01:05:29;77912.94;;;-146.23;51.90
62508;BME280;48556;51.972;4.624;2023-04-19T01:07:54;77880.78;;;-146.23;51.70
62508;BME280;48556;51.972;4.624;2023-04-19T01:10:20;77866.72;;;-146.23;51.57
62508;BME280;48556;51.972;4.624;2023-04-19T01:12:46;77876.75;;;-146.23;51.99
62508;BME280;48556;51.972;4.624;2023-04-19T01:15:11;77870.75;;;-146.23;51.70
62508;BME280;48556;51.972;4.624;2023-04-19T01:17:37;77862.72;;;-146.23;51.91
62508;BME280;48556;51.972;4.624;2023-04-19T01:20:04;77850.66;;;-146.23;51.93
62508;BME280;48556;51.972;4.624;2023-04-19T01:22:34;77850.66;;;-146.23;51.87
62508;BME280;48556;51.972;4.624;2023-04-19T01:25:02;77850.66;;;-146.23;51.96
62508;BME280;48556;51.972;4.624;2023-04-19T01:27:29;77826.53;;;-146.23;51.76
62508;BME280;48556;51.972;4.624;2023-04-19T01:29:55;77820.50;;;-146.23;51.72
62508;BME280;48556;51.972;4.624;2023-04-19T01:32:20;77808.47;;;-146.23;51.24
62508;BME280;48556;51.972;4.624;2023-04-19T01:34:47;77786.38;;;-146.23;51.17
62508;BME280;48556;51.972;4.624;2023-04-19T01:37:13;77792.38;;;-146.23;51.35
62508;BME280;48556;51.972;4.624;2023-04-19T01:39:40;77776.31;;;-146.23;51.10
62508;BME280;48556;51.972;4.624;2023-04-19T01:42:05;77792.38;;;-146.23;51.33
62508;BME280;48556;51.972;4.624;2023-04-19T01:44:31;77738.16;;;-146.23;50.34
62508;BME280;48556;51.972;4.624;2023-04-19T01:46:56;77716.06;;;-146.23;49.88
62508;BME280;48556;51.972;4.624;2023-04-19T01:49:22;77699.97;;;-146.23;49.27
62508;BME280;48556;51.972;4.624;2023-04-19T01:51:47;77738.16;;;-146.23;49.99
62508;BME280;48556;51.972;4.624;2023-04-19T01:54:13;77774.31;;;-146.23;50.22
62508;BME280;48556;51.972;4.624;2023-04-19T01:56:42;77768.28;;;-146.23;50.54
62508;BME280;48556;51.972;4.624;2023-04-19T01:59:08;77782.34;;;-146.23;50.18
62508;BME280;48556;51.972;4.624;2023-04-19T02:01:34;77792.38;;;-146.23;50.35
62508;BME280;48556;51.972;4.624;2023-04-19T02:04:01;77770.28;;;-146.23;50.07
62508;BME280;48556;51.972;4.624;2023-04-19T02:06:32;77798.41;;;-146.23;50.29
62508;BME280;48556;51.972;4.624;2023-04-19T02:08:58;77782.34;;;-146.23;49.89
62508;BME280;48556;51.972;4.624;2023-04-19T02:11:24;77822.53;;;-146.23;50.40
62508;BME280;48556;51.972;4.624;2023-04-19T02:13:49;77842.63;;;-146.23;50.61
62508;BME280;48556;51.972;4.624;2023-04-19T02:16:15;77838.59;;;-146.23;50.88
62508;BME280;48556;51.972;4.624;2023-04-19T02:18:41;77818.50;;;-146.23;50.29
62508;BME280;48556;51.972;4.624;2023-04-19T02:21:08;77838.59;;;-146.23;50.99
62508;BME280;48556;51.972;4.624;2023-04-19T02:23:33;77884.81;;;-146.23;51.64
62508;BME280;48556;51.972;4.624;2023-04-19T02:26:00;77846.63;;;-146.23;50.87
62508;BME280;48556;51.972;4.624;2023-04-19T02:28:29;77838.59;;;-146.23;50.71
62508;BME280;48556;51.972;4.624;2023-04-19T02:30:56;77818.50;;;-146.23;50.61
62508;BME280;48556;51.972;4.624;2023-04-19T02:33:22;77858.69;;;-146.23;51.04
62508;BME280;48556;51.972;4.624;2023-04-19T02:35:48;77868.72;;;-146.23;51.30
62508;BME280;48556;51.972;4.624;2023-04-19T02:38:14;77870.75;;;-146.23;51.36
62508;BME280;48556;51.972;4.624;2023-04-19T02:40:39;77894.84;;;-146.23;51.81
62508;BME280;48556;51.972;4.624;2023-04-19T02:43:05;77900.88;;;-146.23;52.48
62508;BME280;48556;51.972;4.624;2023-04-19T02:45:30;77874.75;;;-146.23;51.93
62508;BME280;48556;51.972;4.624;2023-04-19T02:47:56;77886.81;;;-146.23;51.83
62508;BME280;48556;51.972;4.624;2023-04-19T02:50:23;77874.75;;;-146.23;52.04
62508;BME280;48556;51.972;4.624;2023-04-19T02:52:48;77862.72;;;-146.23;51.95
62508;BME280;48556;51.972;4.624;2023-04-19T02:55:14;77906.91;;;-146.23;52.73
62508;BME280;48556;51.972;4.624;2023-04-19T02:57:39;77870.75;;;-146.23;52.21
62508;BME280;48556;51.972;4.624;2023-04-19T03:00:05;77878.78;;;-146.23;52.27
62508;BME280;48556;51.972;4.624;2023-04-19T03:02:33;77886.81;;;-146.23;52.47
62508;BME280;48556;51.972;4.624;2023-04-19T03:04:58;77898.88;;;-146.23;52.89
62508;BME280;48556;51.972;4.624;2023-04-19T03:07:25;77886.81;;;-146.23;52.75
62508;BME280;48556;51.972;4.624;2023-04-19T03:09:50;77876.75;;;-146.23;52.65
62508;BME280;48556;51.972;4.624;2023-04-19T03:12:16;77870.75;;;-146.23;52.54
62508;BME280;48556;51.972;4.624;2023-04-19T03:14:41;77894.84;;;-146.23;52.87
62508;BME280;48556;51.972;4.624;2023-04-19T03:17:07;77868.72;;;-146.23;52.96
62508;BME280;48556;51.972;4.624;2023-04-19T03:19:32;77850.66;;;-146.23;52.52
62508;BME280;48556;51.972;4.624;2023-04-19T03:22:08;77858.69;;;-146.23;52.43
62508;BME280;48556;51.972;4.624;2023-04-19T03:24:34;77864.72;;;-146.23;52.66
62508;BME280;48556;51.972;4.624;2023-04-19T03:27:02;77860.69;;;-146.23;52.67
62508;BME280;48556;51.972;4.624;2023-04-19T03:29:28;77856.69;;;-146.23;52.79
62508;BME280;48556;51.972;4.624;2023-04-19T03:31:54;77846.63;;;-146.23;52.63
62508;BME280;48556;51.972;4.624;2023-04-19T03:34:19;77862.72;;;-146.23;52.75
62508;BME280;48556;51.972;4.624;2023-04-19T03:36:45;77856.69;;;-146.23;52.91
62508;BME280;48556;51.972;4.624;2023-04-19T03:39:12;77866.72;;;-146.23;53.16
62508;BME280;48556;51.972;4.624;2023-04-19T03:41:39;77876.75;;;-146.23;53.19
62508;BME280;48556;51.972;4.624;2023-04-19T03:44:04;77836.59;;;-146.23;52.72
62508;BME280;48556;51.972;4.624;2023-04-19T03:46:30;77854.66;;;-146.23;52.85
62508;BME280;48556;51.972;4.624;2023-04-19T03:48:56;77856.69;;;-146.23;53.02
62508;BME280;48556;51.972;4.624;2023-04-19T03:51:21;77870.75;;;-146.23;53.33
62508;BME280;48556;51.972;4.624;2023-04-19T03:53:48;77870.75;;;-146.23;53.31
62508;BME280;48556;51.972;4.624;2023-04-19T03:56:14;77890.84;;;-146.23;53.47
62508;BME280;48556;51.972;4.624;2023-04-19T03:58:39;77842.63;;;-146.23;52.73
62508;BME280;48556;51.972;4.624;2023-04-19T04:01:05;77838.59;;;-146.23;52.74
62508;BME280;48556;51.972;4.624;2023-04-19T04:03:35;77818.50;;;-146.23;52.65
62508;BME280;48556;51.972;4.624;2023-04-19T04:06:01;77802.44;;;-146.23;51.84
62508;BME280;48556;51.972;4.624;2023-04-19T04:08:27;77818.50;;;-146.23;52.12
62508;BME280;48556;51.972;4.624;2023-04-19T04:10:53;77806.44;;;-146.23;51.74
62508;BME280;48556;51.972;4.624;2023-04-19T04:13:20;77830.56;;;-146.23;51.72
62508;BME280;48556;51.972;4.624;2023-04-19T04:15:45;77802.44;;;-146.23;51.81
62508;BME280;48556;51.972;4.624;2023-04-19T04:18:11;77836.59;;;-146.23;51.83
62508;BME280;48556;51.972;4.624;2023-04-19T04:20:37;77850.66;;;-146.23;52.25
62508;BME280;48556;51.972;4.624;2023-04-19T04:23:02;77830.56;;;-146.23;52.19
62508;BME280;48556;51.972;4.624;2023-04-19T04:25:29;77832.56;;;-146.23;52.08
62508;BME280;48556;51.972;4.624;2023-04-19T04:27:57;77842.63;;;-146.23;51.99
62508;BME280;48556;51.972;4.624;2023-04-19T04:30:22;77846.63;;;-146.23;52.24
62508;BME280;48556;51.972;4.624;2023-04-19T04:32:48;77854.66;;;-146.23;52.30
62508;BME280;48556;51.972;4.624;2023-04-19T04:35:15;77856.69;;;-146.23;52.50
62508;BME280;48556;51.972;4.624;2023-04-19T04:37:41;77874.75;;;-146.23;52.55
62508;BME280;48556;51.972;4.624;2023-04-19T04:40:08;77830.56;;;-146.23;52.16
62508;BME280;48556;51.972;4.624;2023-04-19T04:42:35;77822.53;;;-146.23;51.82
62508;BME280;48556;51.972;4.624;2023-04-19T04:45:02;77852.66;;;-146.23;52.13
62508;BME280;48556;51.972;4.624;2023-04-19T04:47:36;77844.63;;;-146.23;51.90
62508;BME280;48556;51.972;4.624;2023-04-19T04:50:03;77848.63;;;-146.23;51.86
62508;BME280;48556;51.972;4.624;2023-04-19T04:52:29;77854.66;;;-146.23;52.06
62508;BME280;48556;51.972;4.624;2023-04-19T04:54:54;77838.59;;;-146.23;51.94
62508;BME280;48556;51.972;4.624;2023-04-19T04:57:20;77850.66;;;-146.23;51.85
62508;BME280;48556;51.972;4.624;2023-04-19T04:59:46;77832.56;;;-146.23;51.42
62508;BME280;48556;51.972;4.624;2023-04-19T05:02:14;77822.53;;;-146.23;51.55
62508;BME280;48556;51.972;4.624;2023-04-19T05:04:41;77842.63;;;-146.23;51.63
62508;BME280;48556;51.972;4.624;2023-04-19T05:07:06;77828.56;;;-146.23;51.27
62508;BME280;48556;51.972;4.624;2023-04-19T05:09:32;77852.66;;;-146.23;51.39
62508;BME280;48556;51.972;4.624;2023-04-19T05:11:57;77850.66;;;-146.23;51.21
62508;BME280;48556;51.972;4.624;2023-04-19T05:14:23;77862.72;;;-146.23;51.60
62508;BME280;48556;51.972;4.624;2023-04-19T05:16:49;77810.47;;;-146.23;50.92
62508;BME280;48556;51.972;4.624;2023-04-19T05:19:14;77850.66;;;-146.23;51.32
62508;BME280;48556;51.972;4.624;2023-04-19T05:21:40;77834.56;;;-146.23;50.78
62508;BME280;48556;51.972;4.624;2023-04-19T05:24:05;77856.69;;;-146.23;50.98
62508;BME280;48556;51.972;4.624;2023-04-19T05:26:32;77866.72;;;-146.23;51.16
62508;BME280;48556;51.972;4.624;2023-04-19T05:28:57;77876.75;;;-146.23;51.20
62508;BME280;48556;51.972;4.624;2023-04-19T05:31:23;77870.75;;;-146.23;50.94
62508;BME280;48556;51.972;4.624;2023-04-19T05:33:48;77882.78;;;-146.23;51.09
62508;BME280;48556;51.972;4.624;2023-04-19T05:36:14;77854.66;;;-146.23;50.34
62508;BME280;48556;51.972;4.624;2023-04-19T05:38:39;77882.78;;;-146.23;50.91
62508;BME280;48556;51.972;4.624;2023-04-19T05:41:05;77888.81;;;-146.23;50.76
62508;BME280;48556;51.972;4.624;2023-04-19T05:43:31;77922.97;;;-146.23;51.41
62508;BME280;48556;51.972;4.624;2023-04-19T05:45:57;77906.91;;;-146.23;50.81
62508;BME280;48556;51.972;4.624;2023-04-19T05:48:22;77908.91;;;-146.23;50.74
62508;BME280;48556;51.972;4.624;2023-04-19T05:50:51;77918.97;;;-146.23;50.99
62508;BME280;48556;51.972;4.624;2023-04-19T05:53:20;77939.03;;;-146.23;50.92
62508;BME280;48556;51.972;4.624;2023-04-19T05:55:45;77927.00;;;-146.23;50.96
62508;BME280;48556;51.972;4.624;2023-04-19T05:58:13;77931.00;;;-146.23;50.86
62508;BME280;48556;51.972;4.624;2023-04-19T06:00:39;77918.97;;;-146.23;50.91
62508;BME280;48556;51.972;4.624;2023-04-19T06:03:06;77880.78;;;-146.23;50.10
62508;BME280;48556;51.972;4.624;2023-04-19T06:05:32;77922.97;;;-146.23;50.35
62508;BME280;48556;51.972;4.624;2023-04-19T06:07:58;77886.81;;;-146.23;50.15
62508;BME280;48556;51.972;4.624;2023-04-19T06:10:24;77908.91;;;-146.23;50.31
62508;BME280;48556;51.972;4.624;2023-04-19T06:12:50;77878.78;;;-146.23;49.57
62508;BME280;48556;51.972;4.624;2023-04-19T06:15:15;77892.84;;;-146.23;49.82
62508;BME280;48556;51.972;4.624;2023-04-19T06:17:41;77910.91;;;-146.23;49.98
62508;BME280;48556;51.972;4.624;2023-04-19T06:20:07;77878.78;;;-146.23;49.27
62508;BME280;48556;51.972;4.624;2023-04-19T06:22:34;77882.78;;;-146.23;49.21
62508;BME280;48556;51.972;4.624;2023-04-19T06:25:00;77854.66;;;-146.23;48.71
62508;BME280;48556;51.972;4.624;2023-04-19T06:27:26;77898.88;;;-146.23;48.60
62508;BME280;48556;51.972;4.624;2023-04-19T06:29:51;77842.63;;;-146.23;47.91
62508;BME280;48556;51.972;4.624;2023-04-19T06:32:17;77874.75;;;-146.23;48.10
62508;BME280;48556;51.972;4.624;2023-04-19T06:34:43;77862.72;;;-146.23;47.88
62508;BME280;48556;51.972;4.624;2023-04-19T06:37:08;77862.72;;;-146.23;47.88
62508;BME280;48556;51.972;4.624;2023-04-19T06:39:34;77874.75;;;-146.23;47.98
62508;BME280;48556;51.972;4.624;2023-04-19T06:41:59;77828.56;;;-146.23;47.60
62508;BME280;48556;51.972;4.624;2023-04-19T06:44:27;77836.59;;;-146.23;46.78
62508;BME280;48556;51.972;4.624;2023-04-19T06:46:52;77856.69;;;-146.23;47.07
62508;BME280;48556;51.972;4.624;2023-04-19T06:49:18;77808.47;;;-146.23;46.64
62508;BME280;48556;51.972;4.624;2023-04-19T06:51:44;77810.47;;;-146.23;45.99
62508;BME280;48556;51.972;4.624;2023-04-19T06:54:11;77860.69;;;-146.23;45.93
62508;BME280;48556;51.972;4.624;2023-04-19T06:56:48;77870.75;;;-146.23;45.08
62508;BME280;48556;51.972;4.624;2023-04-19T06:59:16;77856.69;;;-146.23;45.38
62508;BME280;48556;51.972;4.624;2023-04-19T07:01:43;77856.69;;;-146.23;45.52
62508;BME280;48556;51.972;4.624;2023-04-19T07:04:08;77850.66;;;-146.23;45.21
62508;BME280;48556;51.972;4.624;2023-04-19T07:06:34;77814.50;;;-146.23;45.40
62508;BME280;48556;51.972;4.624;2023-04-19T07:09:00;77842.63;;;-146.23;45.30
62508;BME280;48556;51.972;4.624;2023-04-19T07:11:26;77820.50;;;-146.23;45.48
62508;BME280;48556;51.972;4.624;2023-04-19T07:13:55;77810.47;;;-146.23;44.82
62508;BME280;48556;51.972;4.624;2023-04-19T07:16:21;77806.44;;;-146.23;44.36
62508;BME280;48556;51.972;4.624;2023-04-19T07:18:47;77838.59;;;-146.23;44.14
62508;BME280;48556;51.972;4.624;2023-04-19T07:21:12;77818.50;;;-146.23;44.10
62508;BME280;48556;51.972;4.624;2023-04-19T07:23:38;77806.44;;;-146.23;43.50
62508;BME280;48556;51.972;4.624;2023-04-19T07:26:06;77818.50;;;-146.23;43.78
62508;BME280;48556;51.972;4.624;2023-04-19T07:28:32;77820.50;;;-146.23;43.45
62508;BME280;48556;51.972;4.624;2023-04-19T07:30:58;77792.38;;;-146.23;42.91
62508;BME280;48556;51.972;4.624;2023-04-19T07:33:25;77782.34;;;-146.23;42.83
62508;BME280;48556;51.972;4.624;2023-04-19T07:35:52;77758.25;;;-146.23;42.61
62508;BME280;48556;51.972;4.624;2023-04-19T07:38:38;77746.19;;;-146.23;41.70
62508;BME280;48556;51.972;4.624;2023-04-19T07:41:04;77754.22;;;-146.23;41.00
62508;BME280;48556;51.972;4.624;2023-04-19T07:43:30;77794.41;;;-146.23;41.54
62508;BME280;48556;51.972;4.624;2023-04-19T07:45:55;77812.47;;;-146.23;41.74
62508;BME280;48556;51.972;4.624;2023-04-19T07:48:21;77764.25;;;-146.23;41.27
62508;BME280;48556;51.972;4.624;2023-04-19T07:50:50;77782.34;;;-146.23;41.35
62508;BME280;48556;51.972;4.624;2023-04-19T07:53:16;77776.31;;;-146.23;41.25
62508;BME280;48556;51.972;4.624;2023-04-19T07:55:43;77762.25;;;-146.23;41.50
62508;BME280;48556;51.972;4.624;2023-04-19T07:58:08;77695.97;;;-146.23;41.23
62508;BME280;48556;51.972;4.624;2023-04-19T08:00:34;77704.00;;;-146.23;40.56
62508;BME280;48556;51.972;4.624;2023-04-19T08:03:01;77699.97;;;-146.23;40.60
62508;BME280;48556;51.972;4.624;2023-04-19T08:05:28;77667.84;;;-146.23;40.98
62508;BME280;48556;51.972;4.624;2023-04-19T08:07:54;77693.94;;;-146.23;40.17
62508;BME280;48556;51.972;4.624;2023-04-19T08:10:21;77677.88;;;-146.23;40.34
62508;BME280;48556;51.972;4.624;2023-04-19T08:12:48;77633.69;;;-146.23;39.95
62508;BME280;48556;51.972;4.624;2023-04-19T08:15:14;77627.66;;;-146.23;39.61
62508;BME280;48556;51.972;4.624;2023-04-19T08:17:41;77649.75;;;-146.23;39.00
62508;BME280;48556;51.972;4.624;2023-04-19T08:20:10;77637.69;;;-146.23;38.61
62508;BME280;48556;51.972;4.624;2023-04-19T08:22:39;77641.72;;;-146.23;39.23
62508;BME280;48556;51.972;4.624;2023-04-19T08:25:06;77589.50;;;-146.23;38.88
62508;BME280;48556;51.972;4.624;2023-04-19T08:27:31;77597.53;;;-146.23;38.62
62508;BME280;48556;51.972;4.624;2023-04-19T08:29:59;77573.41;;;-146.23;38.11
62508;BME280;48556;51.972;4.624;2023-04-19T08:32:25;77595.50;;;-146.23;37.81
62508;BME280;48556;51.972;4.624;2023-04-19T08:35:10;77617.63;;;-146.23;36.93
62508;BME280;48556;51.972;4.624;2023-04-19T08:37:36;77599.53;;;-146.23;36.94
62508;BME280;48556;51.972;4.624;2023-04-19T08:40:02;77613.59;;;-146.23;36.11
62508;BME280;48556;51.972;4.624;2023-04-19T08:42:30;77617.63;;;-146.23;36.28
62508;BME280;48556;51.972;4.624;2023-04-19T08:45:01;77601.53;;;-146.23;36.33
62508;BME280;48556;51.972;4.624;2023-04-19T08:47:32;77633.69;;;-146.23;36.23
62508;BME280;48556;51.972;4.624;2023-04-19T08:50:00;77639.72;;;-146.23;36.45
62508;BME280;48556;51.972;4.624;2023-04-19T08:52:27;77645.75;;;-146.23;36.00
62508;BME280;48556;51.972;4.624;2023-04-19T08:54:53;77607.56;;;-146.23;35.92
62508;BME280;48556;51.972;4.624;2023-04-19T08:57:21;77577.44;;;-146.23;35.79
62508;BME280;48556;51.972;4.624;2023-04-19T08:59:58;77573.41;;;-146.23;35.20
62508;BME280;48556;51.972;4.624;2023-04-19T09:02:24;77597.53;;;-146.23;35.25
62508;BME280;48556;51.972;4.624;2023-04-19T09:04:50;77581.47;;;-146.23;35.11
62508;BME280;48556;51.972;4.624;2023-04-19T09:07:30;77565.38;;;-146.23;35.32
62508;BME280;48556;51.972;4.624;2023-04-19T09:10:07;77599.53;;;-146.23;34.64
62508;BME280;48556;51.972;4.624;2023-04-19T09:12:36;77579.44;;;-146.23;34.32
62508;BME280;48556;51.972;4.624;2023-04-19T09:15:04;77573.41;;;-146.23;34.28
62508;BME280;48556;51.972;4.624;2023-04-19T09:17:33;77553.34;;;-146.23;34.44
62508;BME280;48556;51.972;4.624;2023-04-19T09:20:04;77573.41;;;-146.23;34.01
62508;BME280;48556;51.972;4.624;2023-04-19T09:22:30;77551.31;;;-146.23;33.86
62508;BME280;48556;51.972;4.624;2023-04-19T09:25:24;77541.28;;;-146.23;33.54
62508;BME280;48556;51.972;4.624;2023-04-19T09:27:50;77509.13;;;-146.23;34.08
62508;BME280;48556;51.972;4.624;2023-04-19T09:30:21;77509.13;;;-146.23;33.55
62508;BME280;48556;51.972;4.624;2023-04-19T09:32:49;77452.88;;;-146.23;33.81
62508;BME280;48556;51.972;4.624;2023-04-19T09:35:15;77464.94;;;-146.23;32.23
62508;BME280;48556;51.972;4.624;2023-04-19T09:37:40;77481.00;;;-146.23;32.10
62508;BME280;48556;51.972;4.624;2023-04-19T09:40:24;77485.03;;;-146.23;31.82
62508;BME280;48556;51.972;4.624;2023-04-19T09:42:51;77493.06;;;-146.23;31.57
62508;BME280;48556;51.972;4.624;2023-04-19T09:45:16;77472.97;;;-146.23;31.75
62508;BME280;48556;51.972;4.624;2023-04-19T09:47:42;77485.03;;;-146.23;31.20
62508;BME280;48556;51.972;4.624;2023-04-19T09:50:09;77462.94;;;-146.23;30.36
62508;BME280;48556;51.972;4.624;2023-04-19T09:52:36;77477.00;;;-146.23;30.71
62508;BME280;48556;51.972;4.624;2023-04-19T09:55:05;77489.03;;;-146.23;30.16
62508;BME280;48556;51.972;4.624;2023-04-19T09:57:32;77448.88;;;-146.23;30.33
62508;BME280;48556;51.972;4.624;2023-04-19T09:59:59;77448.88;;;-146.23;30.16
62508;BME280;48556;51.972;4.624;2023-04-19T10:02:29;77430.78;;;-146.23;29.48
62508;BME280;48556;51.972;4.624;2023-04-19T10:04:57;77422.75;;;-146.23;30.28
62508;BME280;48556;51.972;4.624;2023-04-19T10:07:24;77396.66;;;-146.23;29.13
62508;BME280;48556;51.972;4.624;2023-04-19T10:09:54;77374.53;;;-146.23;29.11
62508;BME280;48556;51.972;4.624;2023-04-19T10:12:25;77358.47;;;-146.23;29.72
62508;BME280;48556;51.972;4.624;2023-04-19T10:15:12;77330.34;;;-146.23;30.17
62508;BME280;48556;51.972;4.624;2023-04-19T10:17:38;77356.47;;;-146.23;29.87
62508;BME280;48556;51.972;4.624;2023-04-19T10:20:09;77376.56;;;-146.23;29.05
62508;BME280;48556;51.972;4.624;2023-04-19T10:22:39;77328.34;;;-146.23;29.11
62508;BME280;48556;51.972;4.624;2023-04-19T10:25:15;77326.34;;;-146.23;28.01
62508;BME280;48556;51.972;4.624;2023-04-19T10:27:43;77308.25;;;-146.23;28.82
62508;BME280;48556;51.972;4.624;2023-04-19T10:30:18;77344.41;;;-146.23;27.54
62508;BME280;48556;51.972;4.624;2023-04-19T10:32:45;77318.31;;;-146.23;28.32
62508;BME280;48556;51.972;4.624;2023-04-19T10:35:49;77250.00;;;-146.23;28.71
62508;BME280;48556;51.972;4.624;2023-04-19T10:38:15;77231.94;;;-146.23;28.16
62508;BME280;48556;51.972;4.624;2023-04-19T10:41:00;77268.09;;;-146.23;27.84
62508;BME280;48556;51.972;4.624;2023-04-19T10:43:30;77252.00;;;-146.23;27.87
62508;BME280;48556;51.972;4.624;2023-04-19T10:46:01;77296.22;;;-146.23;28.06
62508;BME280;48556;51.972;4.624;2023-04-19T10:48:31;77286.16;;;-146.23;27.88
62508;BME280;48556;51.972;4.624;2023-04-19T10:51:04;77233.94;;;-146.23;27.96
62508;BME280;48556;51.972;4.624;2023-04-19T10:53:57;77231.94;;;-146.23;27.19
62508;BME280;48556;51.972;4.624;2023-04-19T11:01:48;77159.63;;;-146.23;27.29
62508;BME280;48556;51.972;4.624;2023-04-19T11:09:38;77085.31;;;-146.23;27.38
62508;BME280;48556;51.972;4.624;2023-04-19T11:12:16;77069.22;;;-146.23;27.13
62508;BME280;48556;51.972;4.624;2023-04-19T11:14:57;77023.03;;;-146.23;27.51
62508;BME280;48556;51.972;4.624;2023-04-19T11:17:31;77039.09;;;-146.23;26.24
62508;BME280;48556;51.972;4.624;2023-04-19T11:22:34;77027.06;;;-146.23;26.46
62508;BME280;48556;51.972;4.624;2023-04-19T11:27:40;76962.78;;;-146.23;26.25
62508;BME280;48556;51.972;4.624;2023-04-19T11:30:15;76922.59;;;-146.23;25.99
62508;BME280;48556;51.972;4.624;2023-04-19T11:32:53;76936.66;;;-146.23;25.90
62508;BME280;48556;51.972;4.624;2023-04-19T11:35:27;76864.34;;;-146.23;25.93
62508;BME280;48556;51.972;4.624;2023-04-19T11:38:14;76828.19;;;-146.23;25.08
62508;BME280;48556;51.972;4.624;2023-04-19T11:40:57;76812.13;;;-146.23;26.01
62508;BME280;48556;51.972;4.624;2023-04-19T11:43:31;76767.94;;;-146.23;25.46
62508;BME280;48556;51.972;4.624;2023-04-19T11:46:07;76711.72;;;-146.23;25.38
62508;BME280;48556;51.972;4.624;2023-04-19T11:48:33;76629.38;;;-146.23;24.97
62508;BME280;48556;51.972;4.624;2023-04-19T11:51:17;76593.22;;;-146.23;24.81
62508;BME280;48556;51.972;4.624;2023-04-19T11:53:43;76524.94;;;-146.23;24.59
62508;BME280;48556;51.972;4.624;2023-04-19T11:56:14;76579.16;;;-146.23;23.79
62508;BME280;48556;51.972;4.624;2023-04-19T11:58:47;76534.97;;;-146.23;24.16
62508;BME280;48556;51.972;4.624;2023-04-19T12:01:21;76500.84;;;-146.23;23.66
62508;BME280;48556;51.972;4.624;2023-04-19T12:03:54;76528.94;;;-146.23;23.37
62508;BME280;48556;51.972;4.624;2023-04-19T12:06:29;76460.66;;;-146.23;23.33
62508;BME280;48556;51.972;4.624;2023-04-19T12:09:19;76420.50;;;-146.23;22.81
62508;BME280;48556;51.972;4.624;2023-04-19T12:11:53;76324.09;;;-146.23;23.12
62508;BME280;48556;51.972;4.624;2023-04-19T12:14:25;76370.28;;;-146.23;22.48
62508;BME280;48556;51.972;4.624;2023-04-19T12:17:11;76376.31;;;-146.23;22.22
62508;BME280;48556;51.972;4.624;2023-04-19T12:19:45;76364.28;;;-146.23;21.90
62508;BME280;48556;51.972;4.624;2023-04-19T12:22:17;76275.91;;;-146.23;21.77
62508;BME280;48556;51.972;4.624;2023-04-19T12:24:53;76267.88;;;-146.23;21.75
62508;BME280;48556;51.972;4.624;2023-04-19T12:27:29;76183.53;;;-146.23;21.58
62508;BME280;48556;51.972;4.624;2023-04-19T12:29:58;76107.22;;;-146.23;21.03
62508;BME280;48556;51.972;4.624;2023-04-19T12:32:30;75990.75;;;-146.23;21.14
62508;BME280;48556;51.972;4.624;2023-04-19T12:35:04;76010.84;;;-146.23;21.03
62508;BME280;48556;51.972;4.624;2023-04-19T12:37:31;76067.06;;;-146.23;20.66
62508;BME280;48556;51.972;4.624;2023-04-19T12:40:09;76034.94;;;-146.23;20.50
62508;BME280;48556;51.972;4.624;2023-04-19T12:42:37;76030.91;;;-146.23;20.34
62508;BME280;48556;51.972;4.624;2023-04-19T12:45:16;76105.22;;;-146.23;20.55
62508;BME280;48556;51.972;4.624;2023-04-19T12:47:47;76111.25;;;-146.23;20.79
62508;BME280;48556;51.972;4.624;2023-04-19T12:50:14;76147.38;;;-146.23;20.90
62508;BME280;48556;51.972;4.624;2023-04-19T12:52:56;76071.06;;;-146.23;20.27
62508;BME280;48556;51.972;4.624;2023-04-19T12:55:22;76053.00;;;-146.23;20.37
62508;BME280;48556;51.972;4.624;2023-04-19T12:57:55;76002.81;;;-146.23;20.46
62508;BME280;48556;51.972;4.624;2023-04-19T13:00:28;76034.94;;;-146.23;19.96
62508;BME280;48556;51.972;4.624;2023-04-19T13:03:02;75906.41;;;-146.23;19.50